sensor_id;sensor_type;location;lat;lon;timestamp;P1;durP1;ratioP1;P2;durP2;ratioP2
78555;SDS011;67851;51.354;7.744;2023-06-22T00:00:55;12.70;;;5.53;;
78555;SDS011;67851;51.354;7.744;2023-06-22T00:03:21;7.18;;;5.38;;
78555;SDS011;67851;51.354;7.744;2023-06-22T00:05:47;7.53;;;5.47;;
78555;SDS011;67851;51.354;7.744;2023-06-22T00:08:14;8.50;;;6.40;;
78555;SDS011;67851;51.354;7.744;2023-06-22T00:10:42;7.80;;;5.13;;
78555;SDS011;67851;51.354;7.744;2023-06-22T00:13:11;6.43;;;5.53;;
78555;SDS011;67851;51.354;7.744;2023-06-22T00:15:37;11.10;;;5.18;;
78555;SDS011;67851;51.354;7.744;2023-06-22T00:18:04;7.28;;;4.32;;
78555;SDS011;67851;51.354;7.744;2023-06-22T00:20:31;5.78;;;4.00;;
78555;SDS011;67851;51.354;7.744;2023-06-22T00:22:58;5.28;;;4.10;;
78555;SDS011;67851;51.354;7.744;2023-06-22T00:25:25;7.05;;;5.15;;
78555;SDS011;67851;51.354;7.744;2023-06-22T00:27:52;9.32;;;4.55;;
78555;SDS011;67851;51.354;7.744;2023-06-22T00:30:18;10.55;;;4.28;;
78555;SDS011;67851;51.354;7.744;2023-06-22T00:32:44;7.82;;;4.43;;
78555;SDS011;67851;51.354;7.744;2023-06-22T00:35:14;7.70;;;5.45;;
78555;SDS011;67851;51.354;7.744;2023-06-22T00:37:41;6.70;;;4.07;;
78555;SDS011;67851;51.354;7.744;2023-06-22T00:40:11;6.10;;;4.20;;
78555;SDS011;67851;51.354;7.744;2023-06-22T00:42:37;5.60;;;4.10;;
78555;SDS011;67851;51.354;7.744;2023-06-22T00:45:05;6.35;;;4.40;;
78555;SDS011;67851;51.354;7.744;2023-06-22T00:47:31;6.97;;;4.90;;
78555;SDS011;67851;51.354;7.744;2023-06-22T00:49:59;5.53;;;4.20;;
78555;SDS011;67851;51.354;7.744;2023-06-22T00:52:25;5.38;;;3.90;;
78555;SDS011;67851;51.354;7.744;2023-06-22T00:54:55;4.90;;;3.55;;
78555;SDS011;67851;51.354;7.744;2023-06-22T00:57:24;5.55;;;3.65;;
78555;SDS011;67851;51.354;7.744;2023-06-22T00:59:55;8.32;;;5.57;;
78555;SDS011;67851;51.354;7.744;2023-06-22T01:02:20;7.00;;;5.50;;
78555;SDS011;67851;51.354;7.744;2023-06-22T01:04:46;7.03;;;5.70;;
78555;SDS011;67851;51.354;7.744;2023-06-22T01:09:56;5.97;;;3.35;;
78555;SDS011;67851;51.354;7.744;2023-06-22T01:12:25;6.60;;;4.43;;
78555;SDS011;67851;51.354;7.744;2023-06-22T01:14:56;6.35;;;4.65;;
78555;SDS011;67851;51.354;7.744;2023-06-22T01:17:30;6.28;;;4.65;;
78555;SDS011;67851;51.354;7.744;2023-06-22T01:19:57;7.07;;;5.03;;
78555;SDS011;67851;51.354;7.744;2023-06-22T01:22:26;5.75;;;4.93;;
78555;SDS011;67851;51.354;7.744;2023-06-22T01:25:01;8.32;;;5.18;;
78555;SDS011;67851;51.354;7.744;2023-06-22T01:30:25;8.25;;;4.15;;
78555;SDS011;67851;51.354;7.744;2023-06-22T01:32:51;4.72;;;4.07;;
78555;SDS011;67851;51.354;7.744;2023-06-22T01:35:18;6.63;;;3.50;;
78555;SDS011;67851;51.354;7.744;2023-06-22T01:37:44;5.63;;;3.70;;
78555;SDS011;67851;51.354;7.744;2023-06-22T01:40:11;7.20;;;4.57;;
78555;SDS011;67851;51.354;7.744;2023-06-22T01:42:39;5.32;;;4.43;;
78555;SDS011;67851;51.354;7.744;2023-06-22T01:45:06;7.47;;;4.35;;
78555;SDS011;67851;51.354;7.744;2023-06-22T01:47:32;5.18;;;4.18;;
78555;SDS011;67851;51.354;7.744;2023-06-22T01:49:59;6.88;;;5.47;;
78555;SDS011;67851;51.354;7.744;2023-06-22T01:52:26;5.07;;;4.40;;
78555;SDS011;67851;51.354;7.744;2023-06-22T01:54:51;7.63;;;5.00;;
78555;SDS011;67851;51.354;7.744;2023-06-22T01:57:18;5.68;;;4.75;;
78555;SDS011;67851;51.354;7.744;2023-06-22T01:59:50;6.28;;;4.47;;
78555;SDS011;67851;51.354;7.744;2023-06-22T02:02:22;8.30;;;4.05;;
78555;SDS011;67851;51.354;7.744;2023-06-22T02:07:39;7.18;;;3.67;;
78555;SDS011;67851;51.354;7.744;2023-06-22T02:10:08;4.95;;;3.88;;
78555;SDS011;67851;51.354;7.744;2023-06-22T02:12:34;4.28;;;3.63;;
78555;SDS011;67851;51.354;7.744;2023-06-22T02:15:01;8.82;;;4.53;;
78555;SDS011;67851;51.354;7.744;2023-06-22T02:17:28;8.43;;;5.20;;
78555;SDS011;67851;51.354;7.744;2023-06-22T02:20:03;6.65;;;5.00;;
78555;SDS011;67851;51.354;7.744;2023-06-22T02:22:31;7.57;;;4.88;;
78555;SDS011;67851;51.354;7.744;2023-06-22T02:24:56;5.45;;;4.32;;
78555;SDS011;67851;51.354;7.744;2023-06-22T02:27:24;7.15;;;3.90;;
78555;SDS011;67851;51.354;7.744;2023-06-22T02:29:50;6.25;;;3.75;;
78555;SDS011;67851;51.354;7.744;2023-06-22T02:32:15;6.32;;;4.20;;
78555;SDS011;67851;51.354;7.744;2023-06-22T02:34:46;4.82;;;3.97;;
78555;SDS011;67851;51.354;7.744;2023-06-22T02:37:15;8.32;;;4.30;;
78555;SDS011;67851;51.354;7.744;2023-06-22T02:39:41;7.13;;;4.03;;
78555;SDS011;67851;51.354;7.744;2023-06-22T02:42:07;5.35;;;4.00;;
78555;SDS011;67851;51.354;7.744;2023-06-22T02:44:32;9.88;;;4.57;;
78555;SDS011;67851;51.354;7.744;2023-06-22T02:46:58;7.75;;;4.70;;
78555;SDS011;67851;51.354;7.744;2023-06-22T02:49:25;6.15;;;4.03;;
78555;SDS011;67851;51.354;7.744;2023-06-22T02:51:50;7.22;;;4.35;;
78555;SDS011;67851;51.354;7.744;2023-06-22T02:54:26;5.72;;;4.50;;
78555;SDS011;67851;51.354;7.744;2023-06-22T02:56:53;5.80;;;4.22;;
78555;SDS011;67851;51.354;7.744;2023-06-22T02:59:21;5.82;;;4.50;;
78555;SDS011;67851;51.354;7.744;2023-06-22T03:01:53;4.03;;;3.63;;
78555;SDS011;67851;51.354;7.744;2023-06-22T03:04:23;5.97;;;3.80;;
78555;SDS011;67851;51.354;7.744;2023-06-22T03:06:50;4.85;;;3.80;;
78555;SDS011;67851;51.354;7.744;2023-06-22T03:09:17;4.20;;;3.78;;
78555;SDS011;67851;51.354;7.744;2023-06-22T03:11:42;6.97;;;4.03;;
78555;SDS011;67851;51.354;7.744;2023-06-22T03:14:10;6.10;;;4.22;;
78555;SDS011;67851;51.354;7.744;2023-06-22T03:16:36;7.45;;;4.30;;
78555;SDS011;67851;51.354;7.744;2023-06-22T03:19:02;6.70;;;4.13;;
78555;SDS011;67851;51.354;7.744;2023-06-22T03:21:29;5.45;;;4.10;;
78555;SDS011;67851;51.354;7.744;2023-06-22T03:23:55;6.93;;;4.47;;
78555;SDS011;67851;51.354;7.744;2023-06-22T03:26:21;5.38;;;4.25;;
78555;SDS011;67851;51.354;7.744;2023-06-22T03:28:48;6.05;;;4.22;;
78555;SDS011;67851;51.354;7.744;2023-06-22T03:31:13;5.32;;;3.90;;
78555;SDS011;67851;51.354;7.744;2023-06-22T03:33:44;6.40;;;4.03;;
78555;SDS011;67851;51.354;7.744;2023-06-22T03:36:09;5.55;;;4.38;;
78555;SDS011;67851;51.354;7.744;2023-06-22T03:38:35;7.57;;;4.53;;
78555;SDS011;67851;51.354;7.744;2023-06-22T03:41:01;6.28;;;4.30;;
78555;SDS011;67851;51.354;7.744;2023-06-22T03:43:29;8.60;;;4.53;;
78555;SDS011;67851;51.354;7.744;2023-06-22T03:45:55;6.53;;;4.50;;
78555;SDS011;67851;51.354;7.744;2023-06-22T03:48:21;7.40;;;4.10;;
78555;SDS011;67851;51.354;7.744;2023-06-22T03:50:49;4.97;;;3.90;;
78555;SDS011;67851;51.354;7.744;2023-06-22T03:53:15;5.53;;;4.03;;
78555;SDS011;67851;51.354;7.744;2023-06-22T03:55:47;6.95;;;4.38;;
78555;SDS011;67851;51.354;7.744;2023-06-22T03:58:17;4.72;;;4.00;;
78555;SDS011;67851;51.354;7.744;2023-06-22T04:00:48;4.60;;;4.07;;
78555;SDS011;67851;51.354;7.744;2023-06-22T04:03:17;5.15;;;4.18;;
78555;SDS011;67851;51.354;7.744;2023-06-22T04:05:47;4.95;;;4.05;;
78555;SDS011;67851;51.354;7.744;2023-06-22T04:08:15;5.47;;;4.25;;
78555;SDS011;67851;51.354;7.744;2023-06-22T04:10:41;8.07;;;4.47;;
78555;SDS011;67851;51.354;7.744;2023-06-22T04:13:10;5.35;;;4.07;;
78555;SDS011;67851;51.354;7.744;2023-06-22T04:15:37;6.85;;;4.03;;
78555;SDS011;67851;51.354;7.744;2023-06-22T04:18:03;4.85;;;4.18;;
78555;SDS011;67851;51.354;7.744;2023-06-22T04:20:29;5.38;;;4.05;;
78555;SDS011;67851;51.354;7.744;2023-06-22T04:22:56;6.10;;;4.82;;
78555;SDS011;67851;51.354;7.744;2023-06-22T04:25:22;5.95;;;4.35;;
78555;SDS011;67851;51.354;7.744;2023-06-22T04:30:55;5.38;;;4.00;;
78555;SDS011;67851;51.354;7.744;2023-06-22T04:33:23;6.57;;;4.68;;
78555;SDS011;67851;51.354;7.744;2023-06-22T04:35:49;6.40;;;4.90;;
78555;SDS011;67851;51.354;7.744;2023-06-22T04:38:14;7.57;;;5.60;;
78555;SDS011;67851;51.354;7.744;2023-06-22T04:40:40;14.93;;;10.77;;
78555;SDS011;67851;51.354;7.744;2023-06-22T04:43:05;14.60;;;10.82;;
78555;SDS011;67851;51.354;7.744;2023-06-22T04:45:32;17.55;;;13.05;;
78555;SDS011;67851;51.354;7.744;2023-06-22T04:47:58;19.92;;;13.45;;
78555;SDS011;67851;51.354;7.744;2023-06-22T04:50:24;19.92;;;14.25;;
78555;SDS011;67851;51.354;7.744;2023-06-22T04:52:50;31.20;;;18.85;;
78555;SDS011;67851;51.354;7.744;2023-06-22T04:55:16;30.90;;;22.40;;
78555;SDS011;67851;51.354;7.744;2023-06-22T04:57:44;38.10;;;26.58;;
78555;SDS011;67851;51.354;7.744;2023-06-22T05:00:15;39.38;;;28.75;;
78555;SDS011;67851;51.354;7.744;2023-06-22T05:02:43;23.15;;;14.73;;
78555;SDS011;67851;51.354;7.744;2023-06-22T05:05:10;31.75;;;15.00;;
78555;SDS011;67851;51.354;7.744;2023-06-22T05:07:49;22.73;;;15.32;;
78555;SDS011;67851;51.354;7.744;2023-06-22T05:10:18;23.75;;;16.15;;
78555;SDS011;67851;51.354;7.744;2023-06-22T05:12:47;24.92;;;18.05;;
78555;SDS011;67851;51.354;7.744;2023-06-22T05:15:12;26.60;;;18.85;;
78555;SDS011;67851;51.354;7.744;2023-06-22T05:17:38;29.05;;;20.15;;
78555;SDS011;67851;51.354;7.744;2023-06-22T05:20:10;36.95;;;23.20;;
78555;SDS011;67851;51.354;7.744;2023-06-22T05:22:39;34.28;;;23.85;;
78555;SDS011;67851;51.354;7.744;2023-06-22T05:25:08;31.35;;;24.67;;
78555;SDS011;67851;51.354;7.744;2023-06-22T05:27:35;33.20;;;25.60;;
78555;SDS011;67851;51.354;7.744;2023-06-22T05:30:08;36.30;;;26.02;;
78555;SDS011;67851;51.354;7.744;2023-06-22T05:32:34;34.65;;;25.38;;
78555;SDS011;67851;51.354;7.744;2023-06-22T05:35:05;28.53;;;21.80;;
78555;SDS011;67851;51.354;7.744;2023-06-22T05:37:31;27.27;;;21.75;;
78555;SDS011;67851;51.354;7.744;2023-06-22T05:39:56;30.10;;;22.52;;
78555;SDS011;67851;51.354;7.744;2023-06-22T05:42:22;30.83;;;24.25;;
78555;SDS011;67851;51.354;7.744;2023-06-22T05:44:50;34.25;;;25.58;;
78555;SDS011;67851;51.354;7.744;2023-06-22T05:47:15;35.72;;;26.77;;
78555;SDS011;67851;51.354;7.744;2023-06-22T05:49:41;34.30;;;25.75;;
78555;SDS011;67851;51.354;7.744;2023-06-22T05:52:06;31.38;;;22.35;;
78555;SDS011;67851;51.354;7.744;2023-06-22T05:54:33;29.40;;;20.73;;
78555;SDS011;67851;51.354;7.744;2023-06-22T05:56:59;26.40;;;20.60;;
78555;SDS011;67851;51.354;7.744;2023-06-22T05:59:25;29.65;;;22.02;;
78555;SDS011;67851;51.354;7.744;2023-06-22T06:01:50;29.15;;;22.33;;
78555;SDS011;67851;51.354;7.744;2023-06-22T06:04:17;30.10;;;22.50;;
78555;SDS011;67851;51.354;7.744;2023-06-22T06:06:44;30.40;;;16.90;;
78555;SDS011;67851;51.354;7.744;2023-06-22T06:09:09;30.42;;;21.60;;
78555;SDS011;67851;51.354;7.744;2023-06-22T06:11:36;32.08;;;23.83;;
78555;SDS011;67851;51.354;7.744;2023-06-22T06:14:02;36.25;;;24.20;;
78555;SDS011;67851;51.354;7.744;2023-06-22T06:16:28;36.63;;;22.60;;
78555;SDS011;67851;51.354;7.744;2023-06-22T06:18:54;31.67;;;24.67;;
78555;SDS011;67851;51.354;7.744;2023-06-22T06:21:22;33.90;;;24.98;;
78555;SDS011;67851;51.354;7.744;2023-06-22T06:23:50;30.30;;;23.98;;
78555;SDS011;67851;51.354;7.744;2023-06-22T06:26:17;32.50;;;25.13;;
78555;SDS011;67851;51.354;7.744;2023-06-22T06:28:53;29.38;;;23.90;;
78555;SDS011;67851;51.354;7.744;2023-06-22T06:31:20;33.67;;;23.45;;
78555;SDS011;67851;51.354;7.744;2023-06-22T06:33:45;31.85;;;24.70;;
78555;SDS011;67851;51.354;7.744;2023-06-22T06:36:11;31.10;;;23.98;;
78555;SDS011;67851;51.354;7.744;2023-06-22T06:38:36;29.02;;;24.00;;
78555;SDS011;67851;51.354;7.744;2023-06-22T06:41:03;28.50;;;23.67;;
78555;SDS011;67851;51.354;7.744;2023-06-22T06:43:28;33.85;;;22.98;;
78555;SDS011;67851;51.354;7.744;2023-06-22T06:45:54;23.50;;;20.38;;
78555;SDS011;67851;51.354;7.744;2023-06-22T06:48:21;26.38;;;21.67;;
78555;SDS011;67851;51.354;7.744;2023-06-22T06:50:47;27.08;;;23.13;;
78555;SDS011;67851;51.354;7.744;2023-06-22T06:53:12;30.58;;;24.45;;
78555;SDS011;67851;51.354;7.744;2023-06-22T06:55:40;25.08;;;22.25;;
78555;SDS011;67851;51.354;7.744;2023-06-22T06:58:06;27.23;;;22.85;;
78555;SDS011;67851;51.354;7.744;2023-06-22T07:00:33;28.88;;;22.45;;
78555;SDS011;67851;51.354;7.744;2023-06-22T07:02:58;19.83;;;17.60;;
78555;SDS011;67851;51.354;7.744;2023-06-22T07:05:23;22.10;;;16.10;;
78555;SDS011;67851;51.354;7.744;2023-06-22T07:07:49;16.60;;;13.77;;
78555;SDS011;67851;51.354;7.744;2023-06-22T07:10:15;13.82;;;11.48;;
78555;SDS011;67851;51.354;7.744;2023-06-22T07:12:40;12.38;;;10.05;;
78555;SDS011;67851;51.354;7.744;2023-06-22T07:15:07;13.45;;;9.95;;
78555;SDS011;67851;51.354;7.744;2023-06-22T07:17:33;11.93;;;10.57;;
78555;SDS011;67851;51.354;7.744;2023-06-22T07:20:00;10.65;;;9.25;;
78555;SDS011;67851;51.354;7.744;2023-06-22T07:22:26;10.68;;;8.80;;
78555;SDS011;67851;51.354;7.744;2023-06-22T07:24:52;8.50;;;7.70;;
78555;SDS011;67851;51.354;7.744;2023-06-22T07:27:18;11.18;;;7.53;;
78555;SDS011;67851;51.354;7.744;2023-06-22T07:29:45;8.77;;;7.85;;
78555;SDS011;67851;51.354;7.744;2023-06-22T07:32:11;10.07;;;7.88;;
78555;SDS011;67851;51.354;7.744;2023-06-22T07:34:37;8.63;;;7.57;;
78555;SDS011;67851;51.354;7.744;2023-06-22T07:37:03;10.05;;;7.93;;
78555;SDS011;67851;51.354;7.744;2023-06-22T07:39:29;8.05;;;7.25;;
78555;SDS011;67851;51.354;7.744;2023-06-22T07:41:55;9.52;;;8.15;;
78555;SDS011;67851;51.354;7.744;2023-06-22T07:44:23;9.25;;;7.57;;
78555;SDS011;67851;51.354;7.744;2023-06-22T07:46:49;8.68;;;7.30;;
78555;SDS011;67851;51.354;7.744;2023-06-22T07:49:14;7.78;;;6.97;;
78555;SDS011;67851;51.354;7.744;2023-06-22T07:51:40;7.50;;;6.65;;
78555;SDS011;67851;51.354;7.744;2023-06-22T07:54:05;6.15;;;5.55;;
78555;SDS011;67851;51.354;7.744;2023-06-22T07:56:31;7.97;;;6.63;;
78555;SDS011;67851;51.354;7.744;2023-06-22T07:58:57;7.03;;;5.80;;
78555;SDS011;67851;51.354;7.744;2023-06-22T08:01:24;6.20;;;5.57;;
78555;SDS011;67851;51.354;7.744;2023-06-22T08:03:50;7.45;;;6.50;;
78555;SDS011;67851;51.354;7.744;2023-06-22T08:06:16;11.68;;;6.47;;
78555;SDS011;67851;51.354;7.744;2023-06-22T08:08:42;7.55;;;6.50;;
78555;SDS011;67851;51.354;7.744;2023-06-22T08:11:09;12.95;;;6.30;;
78555;SDS011;67851;51.354;7.744;2023-06-22T08:13:34;8.63;;;6.05;;
78555;SDS011;67851;51.354;7.744;2023-06-22T08:16:00;8.23;;;6.80;;
78555;SDS011;67851;51.354;7.744;2023-06-22T08:18:26;8.52;;;6.47;;
78555;SDS011;67851;51.354;7.744;2023-06-22T08:20:52;11.27;;;6.53;;
78555;SDS011;67851;51.354;7.744;2023-06-22T08:23:17;10.15;;;6.97;;
78555;SDS011;67851;51.354;7.744;2023-06-22T08:25:43;8.60;;;6.63;;
78555;SDS011;67851;51.354;7.744;2023-06-22T08:28:08;6.25;;;5.25;;
78555;SDS011;67851;51.354;7.744;2023-06-22T08:30:34;6.85;;;5.50;;
78555;SDS011;67851;51.354;7.744;2023-06-22T08:33:00;6.53;;;5.82;;
78555;SDS011;67851;51.354;7.744;2023-06-22T08:35:25;6.57;;;5.65;;
78555;SDS011;67851;51.354;7.744;2023-06-22T08:37:51;7.45;;;5.70;;
78555;SDS011;67851;51.354;7.744;2023-06-22T08:40:22;5.90;;;5.30;;
78555;SDS011;67851;51.354;7.744;2023-06-22T08:42:49;6.35;;;5.28;;
78555;SDS011;67851;51.354;7.744;2023-06-22T08:45:15;6.38;;;5.13;;
78555;SDS011;67851;51.354;7.744;2023-06-22T08:47:41;5.50;;;4.32;;
78555;SDS011;67851;51.354;7.744;2023-06-22T08:50:10;6.00;;;4.68;;
78555;SDS011;67851;51.354;7.744;2023-06-22T08:52:37;4.90;;;4.40;;
78555;SDS011;67851;51.354;7.744;2023-06-22T08:55:06;6.63;;;5.10;;
78555;SDS011;67851;51.354;7.744;2023-06-22T08:57:33;8.05;;;4.88;;
78555;SDS011;67851;51.354;7.744;2023-06-22T09:00:03;8.95;;;4.95;;
78555;SDS011;67851;51.354;7.744;2023-06-22T09:02:44;7.28;;;5.65;;
78555;SDS011;67851;51.354;7.744;2023-06-22T09:05:11;6.20;;;4.80;;
78555;SDS011;67851;51.354;7.744;2023-06-22T09:07:36;5.63;;;5.03;;
78555;SDS011;67851;51.354;7.744;2023-06-22T09:10:02;5.68;;;5.07;;
78555;SDS011;67851;51.354;7.744;2023-06-22T09:12:30;8.95;;;5.50;;
78555;SDS011;67851;51.354;7.744;2023-06-22T09:14:56;5.50;;;4.90;;
78555;SDS011;67851;51.354;7.744;2023-06-22T09:17:23;6.93;;;5.70;;
78555;SDS011;67851;51.354;7.744;2023-06-22T09:19:49;6.05;;;5.15;;
78555;SDS011;67851;51.354;7.744;2023-06-22T09:22:14;6.95;;;5.68;;
78555;SDS011;67851;51.354;7.744;2023-06-22T09:28:21;9.63;;;5.57;;
78555;SDS011;67851;51.354;7.744;2023-06-22T09:30:47;8.30;;;5.55;;
78555;SDS011;67851;51.354;7.744;2023-06-22T09:33:12;6.35;;;5.28;;
78555;SDS011;67851;51.354;7.744;2023-06-22T09:35:38;8.50;;;4.97;;
78555;SDS011;67851;51.354;7.744;2023-06-22T09:38:03;6.07;;;4.95;;
78555;SDS011;67851;51.354;7.744;2023-06-22T09:40:29;6.93;;;5.80;;
78555;SDS011;67851;51.354;7.744;2023-06-22T09:43:00;6.75;;;5.40;;
78555;SDS011;67851;51.354;7.744;2023-06-22T09:45:26;6.38;;;5.38;;
78555;SDS011;67851;51.354;7.744;2023-06-22T09:47:52;6.75;;;4.75;;
78555;SDS011;67851;51.354;7.744;2023-06-22T09:50:17;7.57;;;5.70;;
78555;SDS011;67851;51.354;7.744;2023-06-22T09:52:43;7.05;;;5.68;;
78555;SDS011;67851;51.354;7.744;2023-06-22T09:55:11;8.85;;;5.95;;
78555;SDS011;67851;51.354;7.744;2023-06-22T09:57:37;8.20;;;6.20;;
78555;SDS011;67851;51.354;7.744;2023-06-22T10:00:04;6.50;;;5.70;;
78555;SDS011;67851;51.354;7.744;2023-06-22T10:02:35;9.90;;;6.65;;
78555;SDS011;67851;51.354;7.744;2023-06-22T10:05:01;6.88;;;6.03;;
78555;SDS011;67851;51.354;7.744;2023-06-22T10:07:27;9.35;;;6.10;;
78555;SDS011;67851;51.354;7.744;2023-06-22T10:09:52;9.18;;;6.25;;
78555;SDS011;67851;51.354;7.744;2023-06-22T10:12:18;7.78;;;6.43;;
78555;SDS011;67851;51.354;7.744;2023-06-22T10:14:44;6.03;;;5.10;;
78555;SDS011;67851;51.354;7.744;2023-06-22T10:17:09;9.68;;;6.68;;
78555;SDS011;67851;51.354;7.744;2023-06-22T10:19:35;10.32;;;6.28;;
78555;SDS011;67851;51.354;7.744;2023-06-22T10:22:03;6.00;;;4.97;;
78555;SDS011;67851;51.354;7.744;2023-06-22T10:24:31;7.10;;;5.05;;
78555;SDS011;67851;51.354;7.744;2023-06-22T10:26:57;10.60;;;7.00;;
78555;SDS011;67851;51.354;7.744;2023-06-22T10:29:24;8.65;;;6.93;;
78555;SDS011;67851;51.354;7.744;2023-06-22T10:31:51;9.90;;;6.20;;
78555;SDS011;67851;51.354;7.744;2023-06-22T10:34:17;9.98;;;6.90;;
78555;SDS011;67851;51.354;7.744;2023-06-22T10:36:42;8.57;;;6.32;;
78555;SDS011;67851;51.354;7.744;2023-06-22T10:39:08;8.50;;;7.20;;
78555;SDS011;67851;51.354;7.744;2023-06-22T10:41:34;11.13;;;6.35;;
78555;SDS011;67851;51.354;7.744;2023-06-22T10:44:00;8.70;;;7.03;;
78555;SDS011;67851;51.354;7.744;2023-06-22T10:46:26;8.43;;;6.88;;
78555;SDS011;67851;51.354;7.744;2023-06-22T10:48:53;11.35;;;6.88;;
78555;SDS011;67851;51.354;7.744;2023-06-22T10:51:21;8.15;;;7.20;;
78555;SDS011;67851;51.354;7.744;2023-06-22T10:53:47;6.65;;;5.05;;
78555;SDS011;67851;51.354;7.744;2023-06-22T10:56:13;11.70;;;7.15;;
78555;SDS011;67851;51.354;7.744;2023-06-22T10:58:38;9.63;;;6.95;;
78555;SDS011;67851;51.354;7.744;2023-06-22T11:01:04;8.35;;;7.55;;
78555;SDS011;67851;51.354;7.744;2023-06-22T11:03:31;9.30;;;7.50;;
78555;SDS011;67851;51.354;7.744;2023-06-22T11:05:58;7.65;;;6.85;;
78555;SDS011;67851;51.354;7.744;2023-06-22T11:08:23;8.45;;;4.90;;
78555;SDS011;67851;51.354;7.744;2023-06-22T11:10:50;14.57;;;7.15;;
78555;SDS011;67851;51.354;7.744;2023-06-22T11:13:18;9.43;;;7.55;;
78555;SDS011;67851;51.354;7.744;2023-06-22T11:15:44;13.55;;;7.22;;
78555;SDS011;67851;51.354;7.744;2023-06-22T11:18:12;5.65;;;5.05;;
78555;SDS011;67851;51.354;7.744;2023-06-22T11:20:38;8.20;;;7.20;;
78555;SDS011;67851;51.354;7.744;2023-06-22T11:25:32;16.13;;;9.47;;
78555;SDS011;67851;51.354;7.744;2023-06-22T11:30:29;20.27;;;10.23;;
78555;SDS011;67851;51.354;7.744;2023-06-22T11:32:56;19.38;;;11.98;;
78555;SDS011;67851;51.354;7.744;2023-06-22T11:35:23;14.88;;;10.90;;
78555;SDS011;67851;51.354;7.744;2023-06-22T11:37:48;14.98;;;11.77;;
78555;SDS011;67851;51.354;7.744;2023-06-22T11:40:14;21.92;;;12.02;;
78555;SDS011;67851;51.354;7.744;2023-06-22T11:42:39;14.27;;;11.63;;
78555;SDS011;67851;51.354;7.744;2023-06-22T11:45:09;16.77;;;13.57;;
78555;SDS011;67851;51.354;7.744;2023-06-22T11:47:38;20.10;;;13.23;;
78555;SDS011;67851;51.354;7.744;2023-06-22T11:50:07;17.95;;;13.07;;
78555;SDS011;67851;51.354;7.744;2023-06-22T11:52:35;20.92;;;13.98;;
78555;SDS011;67851;51.354;7.744;2023-06-22T11:55:05;15.13;;;13.35;;
78555;SDS011;67851;51.354;7.744;2023-06-22T11:57:35;22.67;;;15.50;;
78555;SDS011;67851;51.354;7.744;2023-06-22T12:00:02;21.40;;;16.67;;
78555;SDS011;67851;51.354;7.744;2023-06-22T12:05:11;23.55;;;18.13;;
78555;SDS011;67851;51.354;7.744;2023-06-22T12:07:37;31.05;;;18.60;;
78555;SDS011;67851;51.354;7.744;2023-06-22T12:10:03;24.88;;;17.92;;
78555;SDS011;67851;51.354;7.744;2023-06-22T12:12:29;28.10;;;19.38;;
78555;SDS011;67851;51.354;7.744;2023-06-22T12:14:54;31.95;;;20.23;;
78555;SDS011;67851;51.354;7.744;2023-06-22T12:17:20;30.13;;;21.20;;
78555;SDS011;67851;51.354;7.744;2023-06-22T12:19:45;18.83;;;15.52;;
78555;SDS011;67851;51.354;7.744;2023-06-22T12:22:11;30.65;;;16.67;;
78555;SDS011;67851;51.354;7.744;2023-06-22T12:24:36;27.85;;;18.58;;
78555;SDS011;67851;51.354;7.744;2023-06-22T12:27:03;23.27;;;18.00;;
78555;SDS011;67851;51.354;7.744;2023-06-22T12:29:29;27.33;;;18.13;;
78555;SDS011;67851;51.354;7.744;2023-06-22T12:31:55;30.50;;;20.55;;
78555;SDS011;67851;51.354;7.744;2023-06-22T12:34:21;31.52;;;23.75;;
78555;SDS011;67851;51.354;7.744;2023-06-22T12:36:47;37.83;;;24.45;;
78555;SDS011;67851;51.354;7.744;2023-06-22T12:39:14;36.97;;;25.42;;
78555;SDS011;67851;51.354;7.744;2023-06-22T12:41:39;38.05;;;26.60;;
78555;SDS011;67851;51.354;7.744;2023-06-22T12:44:05;42.28;;;24.10;;
78555;SDS011;67851;51.354;7.744;2023-06-22T12:46:31;19.63;;;9.73;;
78555;SDS011;67851;51.354;7.744;2023-06-22T12:49:02;46.85;;;13.25;;
78555;SDS011;67851;51.354;7.744;2023-06-22T12:51:31;21.52;;;10.20;;
78555;SDS011;67851;51.354;7.744;2023-06-22T12:53:58;15.27;;;7.70;;
78555;SDS011;67851;51.354;7.744;2023-06-22T12:56:24;18.95;;;7.20;;
78555;SDS011;67851;51.354;7.744;2023-06-22T12:58:49;18.40;;;8.77;;
78555;SDS011;67851;51.354;7.744;2023-06-22T13:01:15;14.45;;;9.85;;
78555;SDS011;67851;51.354;7.744;2023-06-22T13:03:43;18.70;;;11.35;;
78555;SDS011;67851;51.354;7.744;2023-06-22T13:06:08;27.23;;;17.60;;
78555;SDS011;67851;51.354;7.744;2023-06-22T13:08:35;35.13;;;21.02;;
78555;SDS011;67851;51.354;7.744;2023-06-22T13:11:04;21.33;;;13.93;;
78555;SDS011;67851;51.354;7.744;2023-06-22T13:13:29;13.75;;;9.65;;
78555;SDS011;67851;51.354;7.744;2023-06-22T13:15:55;15.02;;;8.52;;
78555;SDS011;67851;51.354;7.744;2023-06-22T13:18:22;13.38;;;8.10;;
78555;SDS011;67851;51.354;7.744;2023-06-22T13:20:50;20.30;;;9.68;;
78555;SDS011;67851;51.354;7.744;2023-06-22T13:23:21;10.50;;;7.32;;
78555;SDS011;67851;51.354;7.744;2023-06-22T13:25:47;11.98;;;8.40;;
78555;SDS011;67851;51.354;7.744;2023-06-22T13:28:12;17.58;;;9.52;;
78555;SDS011;67851;51.354;7.744;2023-06-22T13:30:40;12.75;;;8.70;;
78555;SDS011;67851;51.354;7.744;2023-06-22T13:33:05;15.10;;;9.20;;
78555;SDS011;67851;51.354;7.744;2023-06-22T13:35:32;14.57;;;10.02;;
78555;SDS011;67851;51.354;7.744;2023-06-22T13:37:59;13.32;;;8.77;;
78555;SDS011;67851;51.354;7.744;2023-06-22T13:40:24;12.18;;;9.35;;
78555;SDS011;67851;51.354;7.744;2023-06-22T13:42:50;13.98;;;9.45;;
78555;SDS011;67851;51.354;7.744;2023-06-22T13:45:15;16.58;;;11.63;;
78555;SDS011;67851;51.354;7.744;2023-06-22T13:47:42;11.07;;;8.68;;
78555;SDS011;67851;51.354;7.744;2023-06-22T13:50:09;11.52;;;8.20;;
78555;SDS011;67851;51.354;7.744;2023-06-22T13:52:35;11.38;;;8.48;;
78555;SDS011;67851;51.354;7.744;2023-06-22T13:55:01;13.73;;;8.80;;
78555;SDS011;67851;51.354;7.744;2023-06-22T13:57:27;11.73;;;8.90;;
78555;SDS011;67851;51.354;7.744;2023-06-22T13:59:55;9.77;;;7.60;;
78555;SDS011;67851;51.354;7.744;2023-06-22T14:02:22;11.68;;;9.70;;
78555;SDS011;67851;51.354;7.744;2023-06-22T14:04:48;13.48;;;9.68;;
78555;SDS011;67851;51.354;7.744;2023-06-22T14:07:13;12.18;;;9.30;;
78555;SDS011;67851;51.354;7.744;2023-06-22T14:09:39;15.63;;;10.55;;
78555;SDS011;67851;51.354;7.744;2023-06-22T14:12:05;14.38;;;10.00;;
78555;SDS011;67851;51.354;7.744;2023-06-22T14:14:34;15.82;;;10.25;;
78555;SDS011;67851;51.354;7.744;2023-06-22T14:17:04;8.90;;;6.70;;
78555;SDS011;67851;51.354;7.744;2023-06-22T14:19:30;8.85;;;6.72;;
78555;SDS011;67851;51.354;7.744;2023-06-22T14:21:56;11.25;;;6.78;;
78555;SDS011;67851;51.354;7.744;2023-06-22T14:24:22;9.27;;;6.13;;
78555;SDS011;67851;51.354;7.744;2023-06-22T14:26:49;13.43;;;7.63;;
78555;SDS011;67851;51.354;7.744;2023-06-22T14:29:14;10.95;;;7.05;;
78555;SDS011;67851;51.354;7.744;2023-06-22T14:31:40;8.55;;;7.53;;
78555;SDS011;67851;51.354;7.744;2023-06-22T14:34:06;10.85;;;8.80;;
78555;SDS011;67851;51.354;7.744;2023-06-22T14:36:31;9.25;;;8.20;;
78555;SDS011;67851;51.354;7.744;2023-06-22T14:39:00;13.45;;;10.07;;
78555;SDS011;67851;51.354;7.744;2023-06-22T14:41:31;12.85;;;10.07;;
78555;SDS011;67851;51.354;7.744;2023-06-22T14:43:57;12.68;;;9.02;;
78555;SDS011;67851;51.354;7.744;2023-06-22T14:46:24;11.00;;;8.85;;
78555;SDS011;67851;51.354;7.744;2023-06-22T14:48:49;15.10;;;9.40;;
78555;SDS011;67851;51.354;7.744;2023-06-22T14:51:15;10.55;;;8.02;;
78555;SDS011;67851;51.354;7.744;2023-06-22T14:53:45;10.07;;;9.05;;
78555;SDS011;67851;51.354;7.744;2023-06-22T14:56:10;12.00;;;9.38;;
78555;SDS011;67851;51.354;7.744;2023-06-22T14:58:38;12.98;;;9.95;;